createdAt,value
2017-11-20T00:02:06.604Z,4.80
2017-11-20T00:05:09.383Z,4.80
2017-11-20T00:08:11.374Z,4.70
2017-11-20T00:11:13.327Z,4.80
2017-11-20T00:14:15.424Z,4.70
2017-11-20T00:17:17.397Z,4.70
2017-11-20T00:20:19.318Z,4.70
2017-11-20T00:23:22.002Z,4.60
2017-11-20T00:26:24.808Z,4.60
2017-11-20T00:29:26.723Z,4.50
2017-11-20T00:32:28.671Z,4.50
2017-11-20T00:35:30.564Z,4.40
2017-11-20T00:38:33.257Z,4.40
2017-11-20T00:41:35.962Z,4.40
2017-11-20T00:44:38.770Z,4.40
2017-11-20T00:47:41.438Z,4.40
2017-11-20T00:50:43.419Z,4.40
2017-11-20T00:53:45.334Z,4.50
2017-11-20T00:56:48.089Z,4.50
2017-11-20T00:59:50.654Z,4.50
2017-11-20T01:02:52.610Z,4.40
2017-11-20T01:05:55.478Z,4.20
2017-11-20T01:08:57.570Z,4.20
2017-11-20T01:11:59.534Z,4.10
2017-11-20T01:15:01.503Z,4.00
2017-11-20T01:18:03.422Z,3.90
2017-11-20T01:21:05.398Z,3.80
2017-11-20T01:24:08.108Z,3.60
2017-11-20T01:27:10.052Z,3.60
2017-11-20T01:30:11.938Z,3.60
2017-11-20T01:33:13.879Z,3.50
2017-11-20T01:36:16.641Z,3.40
2017-11-20T01:39:18.640Z,3.40
2017-11-20T01:42:20.542Z,3.40
2017-11-20T01:45:23.214Z,3.30
2017-11-20T01:48:25.921Z,3.20
2017-11-20T01:51:27.911Z,3.20
2017-11-20T01:54:29.813Z,3.20
2017-11-20T01:57:31.771Z,3.10
2017-11-20T02:00:33.661Z,3.10
2017-11-20T02:03:35.574Z,3.00
2017-11-20T02:06:37.467Z,3.00
2017-11-20T02:09:39.378Z,3.00
2017-11-20T02:12:41.305Z,3.00
2017-11-20T02:15:44.011Z,3.00
2017-11-20T02:18:45.910Z,3.00
2017-11-20T02:21:47.820Z,3.10
2017-11-20T02:24:49.732Z,3.20
2017-11-20T02:27:51.803Z,3.30
2017-11-20T02:30:53.725Z,3.30
2017-11-20T02:33:56.412Z,3.50
2017-11-20T02:36:59.074Z,3.60
2017-11-20T02:40:01.013Z,3.50
2017-11-20T02:43:03.708Z,3.60
2017-11-20T02:46:06.474Z,3.70
2017-11-20T02:49:08.390Z,3.70
2017-11-20T02:52:11.110Z,3.80
2017-11-20T02:55:13.020Z,3.80
2017-11-20T02:58:14.969Z,3.80
2017-11-20T03:01:17.136Z,3.90
2017-11-20T03:04:19.926Z,4.00
2017-11-20T03:07:21.858Z,4.00
2017-11-20T03:10:23.913Z,4.00
2017-11-20T03:13:26.611Z,4.10
2017-11-20T03:16:29.315Z,4.10
2017-11-20T03:19:31.991Z,4.10
2017-11-20T03:22:34.781Z,4.20
2017-11-20T03:25:36.785Z,4.20
2017-11-20T03:28:38.746Z,4.20
2017-11-20T03:31:40.726Z,4.30
2017-11-20T03:34:42.704Z,4.30
2017-11-20T03:37:44.648Z,4.40
2017-11-20T03:40:46.816Z,4.40
2017-11-20T03:43:48.734Z,4.40
2017-11-20T03:46:50.778Z,4.40
2017-11-20T03:49:52.702Z,4.40
2017-11-20T03:52:54.640Z,4.50
2017-11-20T03:55:56.614Z,4.50
2017-11-20T03:58:58.554Z,4.50
2017-11-20T04:02:00.718Z,4.50
2017-11-20T04:05:03.602Z,4.60
2017-11-20T04:08:06.344Z,4.60
2017-11-20T04:11:08.292Z,4.60
2017-11-20T04:14:10.977Z,4.60
2017-11-20T04:17:12.977Z,4.60
2017-11-20T04:20:15.637Z,4.60
2017-11-20T04:23:17.651Z,4.50
2017-11-20T04:26:19.571Z,4.60
2017-11-20T04:29:21.609Z,4.60
2017-11-20T04:32:23.511Z,4.50
2017-11-20T04:35:26.299Z,4.50
2017-11-20T04:38:28.230Z,4.50
2017-11-20T04:41:30.174Z,4.50
2017-11-20T04:44:32.837Z,4.50
2017-11-20T04:47:34.782Z,4.50
2017-11-20T04:50:36.702Z,4.50
2017-11-20T04:53:38.627Z,4.50
2017-11-20T04:56:41.318Z,4.60
2017-11-20T04:59:44.024Z,4.60
2017-11-20T05:02:46.927Z,4.60
2017-11-20T05:05:49.643Z,4.60
2017-11-20T05:08:51.560Z,4.60
2017-11-20T05:11:53.500Z,4.60
2017-11-20T05:14:56.167Z,4.60
2017-11-20T05:17:58.162Z,4.60
2017-11-20T05:21:00.133Z,4.60
2017-11-20T05:24:02.057Z,4.60
2017-11-20T05:27:03.952Z,4.60
2017-11-20T05:30:05.917Z,4.50
2017-11-20T05:33:07.941Z,4.50
2017-11-20T05:36:09.927Z,4.50
2017-11-20T05:39:11.851Z,4.40
2017-11-20T05:42:14.634Z,4.50
2017-11-20T05:45:16.523Z,4.50
2017-11-20T05:48:18.498Z,4.50
2017-11-20T05:51:21.167Z,4.50
2017-11-20T05:54:23.165Z,4.50
2017-11-20T05:57:25.090Z,4.50
2017-11-20T06:00:27.015Z,4.50
2017-11-20T06:03:29.030Z,4.60
2017-11-20T06:06:30.980Z,4.60
2017-11-20T06:09:32.874Z,4.60
2017-11-20T06:12:34.850Z,4.70
2017-11-20T06:15:36.852Z,4.70
2017-11-20T06:18:38.828Z,4.70
2017-11-20T06:21:40.793Z,4.80
2017-11-20T06:24:42.745Z,4.70
2017-11-20T06:27:44.670Z,4.70
2017-11-20T06:30:46.646Z,4.80
2017-11-20T06:33:48.646Z,4.80
2017-11-20T06:36:50.671Z,4.90
2017-11-20T06:39:52.612Z,4.90
2017-11-20T06:42:54.528Z,4.90
2017-11-20T06:45:57.310Z,4.90
2017-11-20T06:48:59.367Z,4.90
2017-11-20T06:52:01.294Z,4.90
2017-11-20T06:55:04.050Z,4.90
2017-11-20T06:58:06.030Z,4.90
2017-11-20T07:01:08.052Z,4.90
2017-11-20T07:04:10.770Z,4.90
2017-11-20T07:07:13.473Z,4.90
2017-11-20T07:10:15.424Z,4.90
2017-11-20T07:13:17.392Z,4.90
2017-11-20T07:16:19.383Z,4.90
2017-11-20T07:19:21.338Z,4.90
2017-11-20T07:22:23.378Z,4.90
2017-11-20T07:25:37.962Z,5.00
2017-11-20T07:28:52.466Z,5.00
2017-11-20T07:31:54.492Z,5.00
2017-11-20T07:34:56.396Z,5.00
2017-11-20T07:38:10.339Z,5.00
2017-11-20T07:41:32.935Z,5.00
2017-11-20T07:44:36.350Z,5.10
2017-11-20T07:47:38.311Z,5.10
2017-11-20T07:50:40.255Z,5.20
2017-11-20T07:53:43.124Z,5.20
2017-11-20T07:56:45.889Z,5.20
2017-11-20T07:59:47.826Z,5.20
2017-11-20T08:02:50.538Z,5.30
2017-11-20T08:05:53.251Z,5.30
2017-11-20T08:08:56.014Z,5.30
2017-11-20T08:11:57.935Z,5.30
2017-11-20T08:15:00.831Z,5.30
2017-11-20T08:18:03.499Z,5.30
2017-11-20T08:21:05.552Z,5.30
2017-11-20T08:24:07.471Z,5.30
2017-11-20T08:27:09.483Z,5.40
2017-11-20T08:30:11.467Z,5.40
2017-11-20T08:33:14.651Z,5.40
2017-11-20T08:36:16.667Z,5.40
2017-11-20T08:39:18.661Z,5.40
2017-11-20T08:42:20.562Z,5.50
2017-11-20T08:45:23.257Z,5.50
2017-11-20T08:48:25.243Z,5.50
2017-11-20T08:51:27.228Z,5.50
2017-11-20T08:54:29.160Z,5.50
2017-11-20T08:57:31.103Z,5.50
2017-11-20T09:00:33.799Z,5.50
2017-11-20T09:03:35.880Z,5.40
2017-11-20T09:06:37.780Z,5.50
2017-11-20T09:09:40.573Z,5.50
2017-11-20T09:12:43.253Z,5.60
2017-11-20T09:15:45.254Z,5.60
2017-11-20T09:18:47.949Z,5.70
2017-11-20T09:21:49.970Z,5.70
2017-11-20T09:24:51.879Z,5.70
2017-11-20T09:27:53.808Z,5.80
2017-11-20T09:30:55.749Z,5.80
2017-11-20T09:33:57.801Z,5.80
2017-11-20T09:37:00.464Z,5.80
2017-11-20T09:40:02.380Z,5.80
2017-11-20T09:43:05.064Z,5.90
2017-11-20T09:46:07.074Z,5.80
2017-11-20T09:49:08.966Z,5.90
2017-11-20T09:52:10.949Z,5.90
2017-11-20T09:55:12.864Z,5.90
2017-11-20T09:58:14.776Z,5.90
2017-11-20T10:01:16.698Z,5.90
2017-11-20T10:04:18.637Z,5.90
2017-11-20T10:07:20.563Z,5.90
2017-11-20T10:10:22.489Z,6.00
2017-11-20T10:13:25.211Z,6.00
2017-11-20T10:16:28.626Z,6.10
2017-11-20T10:19:30.632Z,6.10
2017-11-20T10:22:33.383Z,6.10
2017-11-20T10:25:35.279Z,6.10
2017-11-20T10:28:37.312Z,6.10
2017-11-20T10:31:39.227Z,6.10
2017-11-20T10:34:41.217Z,6.10
2017-11-20T10:37:43.139Z,6.10
2017-11-20T10:40:45.246Z,6.20
2017-11-20T10:43:47.168Z,6.20
2017-11-20T10:46:49.949Z,6.20
2017-11-20T10:49:52.644Z,6.30
2017-11-20T10:52:54.564Z,6.30
2017-11-20T10:55:56.478Z,6.30
2017-11-20T10:58:58.413Z,6.40
2017-11-20T11:02:01.118Z,6.40
2017-11-20T11:05:03.057Z,6.30
2017-11-20T11:08:04.963Z,6.40
2017-11-20T11:11:07.668Z,6.30
2017-11-20T11:14:10.362Z,6.30
2017-11-20T11:17:13.070Z,6.30
2017-11-20T11:20:15.750Z,6.30
2017-11-20T11:23:17.666Z,6.30
2017-11-20T11:26:21.617Z,6.30
2017-11-20T11:29:21.515Z,6.30
2017-11-20T11:32:24.174Z,6.20
2017-11-20T11:35:26.266Z,6.10
2017-11-20T11:38:28.219Z,6.20
2017-11-20T11:41:30.141Z,6.10
2017-11-20T11:44:32.061Z,6.10
2017-11-20T11:47:34.025Z,6.10
2017-11-20T11:50:36.714Z,6.00
2017-11-20T11:53:38.651Z,6.00
2017-11-20T11:56:40.562Z,6.00
2017-11-20T11:59:42.487Z,5.90
2017-11-20T12:02:44.390Z,5.90
2017-11-20T12:05:46.310Z,5.90
2017-11-20T12:08:48.220Z,5.80
2017-11-20T12:11:50.900Z,5.80
2017-11-20T12:14:53.044Z,5.80
2017-11-20T12:17:54.959Z,5.80
2017-11-20T12:20:56.871Z,5.80
2017-11-20T12:23:59.551Z,5.70
2017-11-20T12:27:01.466Z,5.70
2017-11-20T12:30:03.672Z,5.70
2017-11-20T12:33:05.597Z,5.70
2017-11-20T12:36:09.031Z,5.70
2017-11-20T12:39:11.715Z,5.70
2017-11-20T12:42:13.650Z,5.70
2017-11-20T12:45:15.556Z,5.70
2017-11-20T12:48:17.496Z,5.70
2017-11-20T12:51:19.402Z,5.70
2017-11-20T12:54:26.226Z,5.70
2017-11-20T12:57:28.120Z,5.70
2017-11-20T13:00:30.102Z,5.70
2017-11-20T13:03:32.024Z,5.70
2017-11-20T13:06:34.721Z,5.60
2017-11-20T13:09:37.385Z,5.60
2017-11-20T13:12:39.523Z,5.60
2017-11-20T13:15:42.295Z,5.50
2017-11-20T13:18:44.250Z,5.50
2017-11-20T13:21:46.298Z,5.50
2017-11-20T13:24:48.223Z,5.40
2017-11-20T13:27:50.131Z,5.40
2017-11-20T13:30:52.086Z,5.40
2017-11-20T13:33:54.223Z,5.30
2017-11-20T13:36:56.146Z,5.30
2017-11-20T13:39:58.094Z,5.20
2017-11-20T13:43:00.028Z,5.20
2017-11-20T13:46:01.943Z,5.20
2017-11-20T13:49:03.918Z,5.20
2017-11-20T13:52:05.832Z,5.20
2017-11-20T13:55:08.536Z,5.20
2017-11-20T13:58:11.202Z,5.20
2017-11-20T14:01:13.951Z,5.10
2017-11-20T14:04:16.135Z,5.10
2017-11-20T14:07:18.072Z,5.10
2017-11-20T14:10:19.978Z,5.00
2017-11-20T14:13:22.683Z,4.90
2017-11-20T14:16:25.372Z,4.90
2017-11-20T14:19:27.317Z,4.90
2017-11-20T14:22:29.868Z,4.90
2017-11-20T14:25:32.588Z,4.90
2017-11-20T14:28:34.497Z,4.90
2017-11-20T14:31:36.423Z,4.90
2017-11-20T14:34:39.142Z,4.80
2017-11-20T14:37:41.085Z,4.80
2017-11-20T14:40:43.524Z,4.80
2017-11-20T14:43:45.449Z,4.70
2017-11-20T14:46:48.084Z,4.70
2017-11-20T14:49:50.045Z,4.60
2017-11-20T14:52:51.980Z,4.70
2017-11-20T14:55:53.921Z,4.60
2017-11-20T14:58:56.591Z,4.60
2017-11-20T15:01:58.538Z,4.60
2017-11-20T15:05:00.456Z,4.60
2017-11-20T15:08:02.402Z,4.50
2017-11-20T15:11:04.305Z,4.50
2017-11-20T15:14:06.247Z,4.50
2017-11-20T15:17:08.740Z,4.50
2017-11-20T15:20:11.459Z,4.40
2017-11-20T15:23:13.409Z,4.40
2017-11-20T15:26:15.355Z,4.40
2017-11-20T15:29:17.298Z,4.40
2017-11-20T15:32:19.358Z,4.40
2017-11-20T15:35:22.025Z,4.40
2017-11-20T15:38:23.985Z,4.40
2017-11-20T15:41:25.914Z,4.30
2017-11-20T15:44:27.868Z,4.30
2017-11-20T15:47:29.807Z,4.30
2017-11-20T15:50:32.622Z,4.20
2017-11-20T15:53:35.194Z,4.20
2017-11-20T15:56:38.768Z,4.20
2017-11-20T15:59:40.684Z,4.20
2017-11-20T16:02:43.400Z,4.20
2017-11-20T16:05:46.291Z,4.20
2017-11-20T16:08:49.076Z,4.10
2017-11-20T16:11:51.002Z,4.10
2017-11-20T16:14:52.926Z,4.10
2017-11-20T16:17:54.940Z,4.10
2017-11-20T16:20:57.639Z,4.10
2017-11-20T16:24:00.297Z,4.10
2017-11-20T16:27:02.331Z,4.10
2017-11-20T16:30:05.012Z,4.10
2017-11-20T16:33:06.935Z,4.00
2017-11-20T16:36:08.848Z,4.10
2017-11-20T16:39:10.885Z,4.00
2017-11-20T16:42:12.839Z,4.00
2017-11-20T16:45:14.818Z,4.00
2017-11-20T16:48:16.778Z,4.00
2017-11-20T16:51:18.804Z,4.00
2017-11-20T16:54:21.460Z,3.90
2017-11-20T16:57:35.460Z,3.90
2017-11-20T17:00:47.039Z,3.90
2017-11-20T17:03:49.063Z,3.90
2017-11-20T17:06:51.855Z,3.90
2017-11-20T17:09:54.615Z,3.90
2017-11-20T17:12:56.621Z,3.90
2017-11-20T17:15:58.544Z,3.90
2017-11-20T17:19:01.303Z,3.90
2017-11-20T17:22:03.242Z,3.80
2017-11-20T17:25:05.159Z,3.80
2017-11-20T17:28:07.159Z,3.80
2017-11-20T17:31:09.159Z,3.90
2017-11-20T17:34:11.114Z,3.90
2017-11-20T17:37:13.790Z,3.90
2017-11-20T17:40:15.728Z,3.90
2017-11-20T17:43:18.524Z,3.90
2017-11-20T17:46:20.506Z,3.90
2017-11-20T17:49:22.499Z,3.90
2017-11-20T17:52:25.302Z,3.80
2017-11-20T17:55:27.991Z,3.80
2017-11-20T17:58:29.919Z,3.80
2017-11-20T18:01:31.843Z,3.80
2017-11-20T18:04:33.827Z,3.90
2017-11-20T18:07:35.834Z,3.80
2017-11-20T18:10:37.797Z,3.80
2017-11-20T18:13:39.734Z,3.90
2017-11-20T18:16:41.696Z,3.90
2017-11-20T18:19:43.622Z,3.80
2017-11-20T18:22:45.633Z,3.80
2017-11-20T18:25:47.595Z,3.90
2017-11-20T18:28:49.593Z,3.80
2017-11-20T18:31:51.608Z,3.80
2017-11-20T18:34:53.798Z,3.80
2017-11-20T18:37:56.502Z,3.80
2017-11-20T18:40:58.442Z,3.80
2017-11-20T18:44:01.981Z,3.80
2017-11-20T18:47:04.782Z,3.80
2017-11-20T18:50:07.455Z,3.90
2017-11-20T18:53:09.462Z,3.80
2017-11-20T18:56:11.387Z,3.90
2017-11-20T18:59:13.329Z,3.90
2017-11-20T19:02:27.219Z,3.90
2017-11-20T19:05:41.202Z,3.90
2017-11-20T19:09:04.073Z,3.90
2017-11-20T19:12:05.994Z,3.90
2017-11-20T19:15:07.951Z,3.90
2017-11-20T19:18:09.882Z,3.90
2017-11-20T19:21:12.544Z,3.90
2017-11-20T19:24:14.567Z,3.90
2017-11-20T19:27:17.256Z,3.90
2017-11-20T19:30:19.197Z,3.90
2017-11-20T19:33:21.148Z,3.90
2017-11-20T19:36:23.087Z,3.90
2017-11-20T19:39:25.065Z,3.90
2017-11-20T19:42:27.015Z,3.90
2017-11-20T19:45:28.944Z,3.90
2017-11-20T19:48:30.926Z,3.90
2017-11-20T19:51:32.886Z,3.90
2017-11-20T19:54:34.898Z,3.90
2017-11-20T19:57:37.085Z,3.90
2017-11-20T20:00:39.043Z,4.00
2017-11-20T20:03:40.954Z,4.00
2017-11-20T20:06:43.750Z,4.00
2017-11-20T20:09:46.544Z,4.00
2017-11-20T20:12:48.498Z,4.00
2017-11-20T20:16:02.799Z,4.00
2017-11-20T20:19:04.771Z,4.00
2017-11-20T20:22:06.778Z,4.00
2017-11-20T20:25:09.550Z,4.00
2017-11-20T20:28:11.566Z,4.00
2017-11-20T20:31:14.291Z,4.00
2017-11-20T20:34:16.939Z,4.00
2017-11-20T20:37:18.941Z,4.10
2017-11-20T20:40:21.762Z,4.10
2017-11-20T20:43:24.538Z,4.10
2017-11-20T20:46:26.527Z,4.10
2017-11-20T20:49:28.622Z,4.10
2017-11-20T20:52:31.423Z,4.10
2017-11-20T20:55:33.451Z,4.10
2017-11-20T20:58:35.382Z,4.10
2017-11-20T21:01:37.311Z,4.10
2017-11-20T21:04:39.360Z,4.10
2017-11-20T21:07:42.115Z,4.10
2017-11-20T21:10:44.118Z,4.10
2017-11-20T21:13:46.142Z,4.20
2017-11-20T21:16:48.818Z,4.20
2017-11-20T21:19:50.758Z,4.10
2017-11-20T21:22:52.690Z,4.20
2017-11-20T21:25:55.387Z,4.20
2017-11-20T21:28:57.362Z,4.20
2017-11-20T21:31:59.279Z,4.20
2017-11-20T21:35:01.207Z,4.20
2017-11-20T21:38:03.161Z,4.30
2017-11-20T21:41:05.101Z,4.20
2017-11-20T21:44:07.813Z,4.20
2017-11-20T21:47:10.620Z,4.30
2017-11-20T21:50:13.294Z,4.30
2017-11-20T21:53:15.284Z,4.30
2017-11-20T21:56:17.262Z,4.30
2017-11-20T21:59:19.186Z,4.30
2017-11-20T22:02:21.226Z,4.30
2017-11-20T22:05:23.166Z,4.30
2017-11-20T22:08:25.111Z,4.30
2017-11-20T22:11:27.774Z,4.40
2017-11-20T22:14:30.318Z,4.30
2017-11-20T22:17:32.264Z,4.40
2017-11-20T22:20:34.233Z,4.40
2017-11-20T22:23:36.156Z,4.40
2017-11-20T22:26:38.863Z,4.40
2017-11-20T22:29:40.807Z,4.40
2017-11-20T22:32:42.722Z,4.40
2017-11-20T22:35:45.506Z,4.40
2017-11-20T22:38:47.501Z,4.40
2017-11-20T22:41:50.202Z,4.50
2017-11-20T22:44:52.911Z,4.50
2017-11-20T22:47:55.667Z,4.50
2017-11-20T22:50:57.680Z,4.40
2017-11-20T22:54:00.366Z,4.50
2017-11-20T22:57:02.331Z,4.40
2017-11-20T23:00:04.308Z,4.50
2017-11-20T23:03:06.229Z,4.50
2017-11-20T23:06:08.911Z,4.50
2017-11-20T23:09:10.851Z,4.50
2017-11-20T23:12:13.612Z,4.50
2017-11-20T23:15:16.306Z,4.50
2017-11-20T23:18:18.504Z,4.50
2017-11-20T23:21:21.296Z,4.50
2017-11-20T23:24:23.190Z,4.50
2017-11-20T23:27:25.886Z,4.50
2017-11-20T23:30:28.773Z,4.50
2017-11-20T23:33:30.701Z,4.50
2017-11-20T23:36:32.598Z,4.50
2017-11-20T23:39:34.557Z,4.50
2017-11-20T23:42:36.483Z,4.50
2017-11-20T23:45:38.473Z,4.50
2017-11-20T23:48:40.447Z,4.50
2017-11-20T23:51:42.436Z,4.50
2017-11-20T23:54:44.444Z,4.50
2017-11-20T23:57:47.252Z,4.60
